sensor_id;sensor_type;location;lat;lon;timestamp;temperature;humidity
9828;DHT22;4953;48.952;9.442;2022-10-15T04:01:51;15.30;99.90
9828;DHT22;4953;48.952;9.442;2022-10-15T04:04:18;15.40;99.90
9828;DHT22;4953;48.952;9.442;2022-10-15T04:06:45;15.40;99.90
9828;DHT22;4953;48.952;9.442;2022-10-15T04:09:12;15.40;99.90
9828;DHT22;4953;48.952;9.442;2022-10-15T04:11:39;15.40;99.90
9828;DHT22;4953;48.952;9.442;2022-10-15T04:14:06;15.50;99.90
9828;DHT22;4953;48.952;9.442;2022-10-15T04:16:33;15.40;99.90
9828;DHT22;4953;48.952;9.442;2022-10-15T04:19:01;15.50;99.90
9828;DHT22;4953;48.952;9.442;2022-10-15T04:21:28;15.40;99.90
9828;DHT22;4953;48.952;9.442;2022-10-15T04:23:55;15.50;99.90
9828;DHT22;4953;48.952;9.442;2022-10-15T04:26:21;15.50;99.90
9828;DHT22;4953;48.952;9.442;2022-10-15T04:28:48;15.40;99.90
9828;DHT22;4953;48.952;9.442;2022-10-15T04:31:15;15.50;99.90
9828;DHT22;4953;48.952;9.442;2022-10-15T04:33:42;15.40;99.90
9828;DHT22;4953;48.952;9.442;2022-10-15T04:36:13;15.40;99.90
9828;DHT22;4953;48.952;9.442;2022-10-15T04:38:39;15.40;99.90
9828;DHT22;4953;48.952;9.442;2022-10-15T04:41:08;15.50;99.90
9828;DHT22;4953;48.952;9.442;2022-10-15T04:43:37;15.50;99.90
9828;DHT22;4953;48.952;9.442;2022-10-15T04:46:06;15.40;99.90
9828;DHT22;4953;48.952;9.442;2022-10-15T04:48:35;15.50;99.90
9828;DHT22;4953;48.952;9.442;2022-10-15T04:51:04;15.50;99.90
9828;DHT22;4953;48.952;9.442;2022-10-15T04:53:32;15.50;99.90
9828;DHT22;4953;48.952;9.442;2022-10-15T04:56:01;15.50;99.90
9828;DHT22;4953;48.952;9.442;2022-10-15T04:58:29;15.50;99.90
9828;DHT22;4953;48.952;9.442;2022-10-15T05:00:59;15.50;99.90
9828;DHT22;4953;48.952;9.442;2022-10-15T05:03:26;15.50;99.90
9828;DHT22;4953;48.952;9.442;2022-10-15T05:05:53;15.60;99.90
9828;DHT22;4953;48.952;9.442;2022-10-15T05:08:25;15.60;99.90
9828;DHT22;4953;48.952;9.442;2022-10-15T05:10:53;15.60;99.90
9828;DHT22;4953;48.952;9.442;2022-10-15T05:13:19;15.60;99.90
9828;DHT22;4953;48.952;9.442;2022-10-15T05:15:46;15.60;99.90
9828;DHT22;4953;48.952;9.442;2022-10-15T05:18:13;15.60;99.90
9828;DHT22;4953;48.952;9.442;2022-10-15T05:20:40;15.60;99.90
9828;DHT22;4953;48.952;9.442;2022-10-15T05:23:07;15.60;99.90
9828;DHT22;4953;48.952;9.442;2022-10-15T05:25:33;15.60;99.90
9828;DHT22;4953;48.952;9.442;2022-10-15T05:28:02;15.70;99.90
9828;DHT22;4953;48.952;9.442;2022-10-15T05:30:29;15.70;99.90
9828;DHT22;4953;48.952;9.442;2022-10-15T05:32:55;15.70;99.90
9828;DHT22;4953;48.952;9.442;2022-10-15T05:35:22;15.70;99.90
9828;DHT22;4953;48.952;9.442;2022-10-15T05:37:49;15.70;99.90
9828;DHT22;4953;48.952;9.442;2022-10-15T05:40:16;15.70;99.90
9828;DHT22;4953;48.952;9.442;2022-10-15T05:42:42;15.70;99.90
9828;DHT22;4953;48.952;9.442;2022-10-15T05:45:11;15.70;99.90
9828;DHT22;4953;48.952;9.442;2022-10-15T05:47:38;15.70;99.90
9828;DHT22;4953;48.952;9.442;2022-10-15T05:50:05;15.70;99.90
9828;DHT22;4953;48.952;9.442;2022-10-15T05:52:32;15.80;99.90
9828;DHT22;4953;48.952;9.442;2022-10-15T05:54:58;15.70;99.90
9828;DHT22;4953;48.952;9.442;2022-10-15T05:57:25;15.80;99.90
9828;DHT22;4953;48.952;9.442;2022-10-15T05:59:52;15.80;99.90
9828;DHT22;4953;48.952;9.442;2022-10-15T06:02:20;15.80;99.90
9828;DHT22;4953;48.952;9.442;2022-10-15T06:04:47;15.70;99.90
9828;DHT22;4953;48.952;9.442;2022-10-15T06:07:14;15.70;99.90
9828;DHT22;4953;48.952;9.442;2022-10-15T06:09:41;15.70;99.90
9828;DHT22;4953;48.952;9.442;2022-10-15T06:12:07;15.70;99.90
9828;DHT22;4953;48.952;9.442;2022-10-15T06:14:34;15.70;99.90
9828;DHT22;4953;48.952;9.442;2022-10-15T06:17:01;15.70;99.90
9828;DHT22;4953;48.952;9.442;2022-10-15T06:19:29;15.70;99.90
9828;DHT22;4953;48.952;9.442;2022-10-15T06:21:57;15.70;99.90
9828;DHT22;4953;48.952;9.442;2022-10-15T06:24:23;15.80;99.90
9828;DHT22;4953;48.952;9.442;2022-10-15T06:26:50;15.80;99.90
9828;DHT22;4953;48.952;9.442;2022-10-15T06:29:17;15.80;99.90
9828;DHT22;4953;48.952;9.442;2022-10-15T06:31:44;15.90;99.90
9828;DHT22;4953;48.952;9.442;2022-10-15T06:34:10;15.90;99.90
9828;DHT22;4953;48.952;9.442;2022-10-15T06:36:39;15.90;99.90
9828;DHT22;4953;48.952;9.442;2022-10-15T06:39:05;16.00;99.90
9828;DHT22;4953;48.952;9.442;2022-10-15T06:41:32;15.90;99.90
9828;DHT22;4953;48.952;9.442;2022-10-15T06:43:59;16.00;99.90
9828;DHT22;4953;48.952;9.442;2022-10-15T06:46:26;15.90;99.90
9828;DHT22;4953;48.952;9.442;2022-10-15T06:48:52;15.90;99.90
9828;DHT22;4953;48.952;9.442;2022-10-15T06:51:20;16.00;99.90
9828;DHT22;4953;48.952;9.442;2022-10-15T06:53:48;16.00;99.90
9828;DHT22;4953;48.952;9.442;2022-10-15T06:56:15;16.00;99.90
9828;DHT22;4953;48.952;9.442;2022-10-15T06:58:42;16.00;99.90
9828;DHT22;4953;48.952;9.442;2022-10-15T07:01:08;16.00;99.90
9828;DHT22;4953;48.952;9.442;2022-10-15T07:03:35;16.00;99.90
9828;DHT22;4953;48.952;9.442;2022-10-15T07:06:04;16.00;99.90
9828;DHT22;4953;48.952;9.442;2022-10-15T07:08:32;16.00;99.90
9828;DHT22;4953;48.952;9.442;2022-10-15T07:11:02;16.00;99.90
9828;DHT22;4953;48.952;9.442;2022-10-15T07:13:29;16.00;99.90
9828;DHT22;4953;48.952;9.442;2022-10-15T07:15:56;16.00;99.90
9828;DHT22;4953;48.952;9.442;2022-10-15T07:18:22;16.00;99.90
9828;DHT22;4953;48.952;9.442;2022-10-15T07:20:49;16.00;99.90
9828;DHT22;4953;48.952;9.442;2022-10-15T07:23:16;16.00;99.90
9828;DHT22;4953;48.952;9.442;2022-10-15T07:25:43;15.90;99.90
9828;DHT22;4953;48.952;9.442;2022-10-15T07:28:11;16.00;99.90
9828;DHT22;4953;48.952;9.442;2022-10-15T07:30:38;16.00;99.90
9828;DHT22;4953;48.952;9.442;2022-10-15T07:33:05;16.00;99.90
9828;DHT22;4953;48.952;9.442;2022-10-15T07:35:31;16.00;99.90
9828;DHT22;4953;48.952;9.442;2022-10-15T07:37:59;16.10;99.90
9828;DHT22;4953;48.952;9.442;2022-10-15T07:40:27;16.10;99.90
9828;DHT22;4953;48.952;9.442;2022-10-15T07:42:54;16.00;99.90
9828;DHT22;4953;48.952;9.442;2022-10-15T07:45:23;16.00;99.90
9828;DHT22;4953;48.952;9.442;2022-10-15T07:47:50;16.10;99.90
9828;DHT22;4953;48.952;9.442;2022-10-15T07:50:18;16.10;99.90
9828;DHT22;4953;48.952;9.442;2022-10-15T07:52:46;16.20;99.90
9828;DHT22;4953;48.952;9.442;2022-10-15T07:55:13;16.20;99.90
9828;DHT22;4953;48.952;9.442;2022-10-15T07:57:39;16.30;99.90
9828;DHT22;4953;48.952;9.442;2022-10-15T08:00:07;16.30;99.90
9828;DHT22;4953;48.952;9.442;2022-10-15T08:02:35;16.40;99.90
9828;DHT22;4953;48.952;9.442;2022-10-15T08:05:03;16.40;99.90
9828;DHT22;4953;48.952;9.442;2022-10-15T08:07:29;16.40;99.90
9828;DHT22;4953;48.952;9.442;2022-10-15T08:09:56;16.40;99.90
9828;DHT22;4953;48.952;9.442;2022-10-15T08:12:23;16.40;99.90
9828;DHT22;4953;48.952;9.442;2022-10-15T08:14:50;16.40;99.90
9828;DHT22;4953;48.952;9.442;2022-10-15T08:17:16;16.40;99.90
9828;DHT22;4953;48.952;9.442;2022-10-15T08:19:45;16.40;99.90
9828;DHT22;4953;48.952;9.442;2022-10-15T08:22:11;16.50;99.90
9828;DHT22;4953;48.952;9.442;2022-10-15T08:24:38;16.50;99.90
9828;DHT22;4953;48.952;9.442;2022-10-15T08:27:05;16.40;99.90
9828;DHT22;4953;48.952;9.442;2022-10-15T08:29:31;16.50;99.90
9828;DHT22;4953;48.952;9.442;2022-10-15T08:31:58;16.50;99.90
9828;DHT22;4953;48.952;9.442;2022-10-15T08:34:25;16.50;99.90
9828;DHT22;4953;48.952;9.442;2022-10-15T08:36:53;16.50;99.90
9828;DHT22;4953;48.952;9.442;2022-10-15T08:39:20;16.60;99.90
9828;DHT22;4953;48.952;9.442;2022-10-15T08:41:49;16.60;99.90
9828;DHT22;4953;48.952;9.442;2022-10-15T08:44:22;16.60;99.90
9828;DHT22;4953;48.952;9.442;2022-10-15T08:46:52;16.60;99.90
9828;DHT22;4953;48.952;9.442;2022-10-15T08:49:28;16.60;99.90
9828;DHT22;4953;48.952;9.442;2022-10-15T08:52:02;16.60;99.90
9828;DHT22;4953;48.952;9.442;2022-10-15T08:54:32;16.60;99.90
9828;DHT22;4953;48.952;9.442;2022-10-15T08:57:10;16.60;99.90
9828;DHT22;4953;48.952;9.442;2022-10-15T08:59:44;16.50;99.90
9828;DHT22;4953;48.952;9.442;2022-10-15T09:02:17;16.40;99.90
9828;DHT22;4953;48.952;9.442;2022-10-15T09:04:50;16.40;99.90
9828;DHT22;4953;48.952;9.442;2022-10-15T09:07:24;16.40;99.90
9828;DHT22;4953;48.952;9.442;2022-10-15T09:09:56;16.40;99.90
9828;DHT22;4953;48.952;9.442;2022-10-15T09:12:36;16.40;99.90
9828;DHT22;4953;48.952;9.442;2022-10-15T09:15:11;16.40;99.90
9828;DHT22;4953;48.952;9.442;2022-10-15T09:17:40;16.40;99.90
9828;DHT22;4953;48.952;9.442;2022-10-15T09:20:15;16.40;99.90
9828;DHT22;4953;48.952;9.442;2022-10-15T09:22:44;16.40;99.90
9828;DHT22;4953;48.952;9.442;2022-10-15T09:25:14;16.40;99.90
9828;DHT22;4953;48.952;9.442;2022-10-15T09:27:42;16.40;99.90
9828;DHT22;4953;48.952;9.442;2022-10-15T09:30:21;16.50;99.90
9828;DHT22;4953;48.952;9.442;2022-10-15T09:32:52;16.50;99.90
9828;DHT22;4953;48.952;9.442;2022-10-15T09:35:24;16.40;99.90
9828;DHT22;4953;48.952;9.442;2022-10-15T09:37:58;16.40;99.90
9828;DHT22;4953;48.952;9.442;2022-10-15T09:40:38;16.30;99.90
9828;DHT22;4953;48.952;9.442;2022-10-15T09:43:10;16.20;99.90
9828;DHT22;4953;48.952;9.442;2022-10-15T09:45:37;16.20;99.90
9828;DHT22;4953;48.952;9.442;2022-10-15T09:48:14;16.10;99.90
9828;DHT22;4953;48.952;9.442;2022-10-15T09:50:45;16.10;99.90
9828;DHT22;4953;48.952;9.442;2022-10-15T09:53:19;16.20;99.90
9828;DHT22;4953;48.952;9.442;2022-10-15T09:55:51;16.20;99.90
9828;DHT22;4953;48.952;9.442;2022-10-15T09:58:22;16.20;99.90
9828;DHT22;4953;48.952;9.442;2022-10-15T10:00:56;16.20;99.90
9828;DHT22;4953;48.952;9.442;2022-10-15T10:03:25;16.20;99.90
9828;DHT22;4953;48.952;9.442;2022-10-15T10:06:00;16.20;99.90
9828;DHT22;4953;48.952;9.442;2022-10-15T10:08:31;16.30;99.90
9828;DHT22;4953;48.952;9.442;2022-10-15T10:11:00;16.40;99.90
9828;DHT22;4953;48.952;9.442;2022-10-15T10:13:31;16.40;99.90
9828;DHT22;4953;48.952;9.442;2022-10-15T10:16:02;16.50;99.90
9828;DHT22;4953;48.952;9.442;2022-10-15T10:18:30;16.60;99.90
9828;DHT22;4953;48.952;9.442;2022-10-15T10:20:59;16.60;99.90
9828;DHT22;4953;48.952;9.442;2022-10-15T10:23:34;16.70;99.90
9828;DHT22;4953;48.952;9.442;2022-10-15T10:26:03;16.70;99.90
9828;DHT22;4953;48.952;9.442;2022-10-15T10:28:33;16.70;99.90
9828;DHT22;4953;48.952;9.442;2022-10-15T10:31:04;16.80;99.90
9828;DHT22;4953;48.952;9.442;2022-10-15T10:33:35;16.90;99.90
9828;DHT22;4953;48.952;9.442;2022-10-15T10:36:04;16.90;99.90
9828;DHT22;4953;48.952;9.442;2022-10-15T10:38:33;16.90;99.90
9828;DHT22;4953;48.952;9.442;2022-10-15T10:41:02;17.00;99.90
9828;DHT22;4953;48.952;9.442;2022-10-15T10:43:33;17.00;99.90
9828;DHT22;4953;48.952;9.442;2022-10-15T10:46:03;17.00;99.90
9828;DHT22;4953;48.952;9.442;2022-10-15T10:48:38;17.00;99.90
9828;DHT22;4953;48.952;9.442;2022-10-15T10:51:11;17.00;99.90
9828;DHT22;4953;48.952;9.442;2022-10-15T10:53:48;17.00;99.90
9828;DHT22;4953;48.952;9.442;2022-10-15T10:56:19;17.00;99.90
9828;DHT22;4953;48.952;9.442;2022-10-15T10:58:50;17.00;99.90
9828;DHT22;4953;48.952;9.442;2022-10-15T11:01:18;17.10;99.90
9828;DHT22;4953;48.952;9.442;2022-10-15T11:03:44;17.10;99.90
9828;DHT22;4953;48.952;9.442;2022-10-15T11:06:36;17.20;99.90
9828;DHT22;4953;48.952;9.442;2022-10-15T11:09:15;17.20;99.90
9828;DHT22;4953;48.952;9.442;2022-10-15T11:11:51;17.30;99.90
9828;DHT22;4953;48.952;9.442;2022-10-15T11:14:26;17.40;99.90
9828;DHT22;4953;48.952;9.442;2022-10-15T11:17:00;17.40;99.90
9828;DHT22;4953;48.952;9.442;2022-10-15T11:19:36;17.60;99.90
9828;DHT22;4953;48.952;9.442;2022-10-15T11:22:26;17.60;99.90
9828;DHT22;4953;48.952;9.442;2022-10-15T11:25:01;17.70;99.90
9828;DHT22;4953;48.952;9.442;2022-10-15T11:27:44;17.80;99.90
9828;DHT22;4953;48.952;9.442;2022-10-15T11:30:26;17.90;99.90
9828;DHT22;4953;48.952;9.442;2022-10-15T11:33:06;17.90;99.90
9828;DHT22;4953;48.952;9.442;2022-10-15T11:35:42;17.90;99.90
9828;DHT22;4953;48.952;9.442;2022-10-15T11:38:18;17.90;99.90
9828;DHT22;4953;48.952;9.442;2022-10-15T11:41:00;17.90;99.90
9828;DHT22;4953;48.952;9.442;2022-10-15T11:43:41;18.00;99.90
9828;DHT22;4953;48.952;9.442;2022-10-15T11:46:18;18.10;99.90
9828;DHT22;4953;48.952;9.442;2022-10-15T11:49:01;18.10;99.90
9828;DHT22;4953;48.952;9.442;2022-10-15T11:51:33;18.20;99.90
9828;DHT22;4953;48.952;9.442;2022-10-15T11:54:20;18.20;99.90
9828;DHT22;4953;48.952;9.442;2022-10-15T11:56:53;18.20;99.90
9828;DHT22;4953;48.952;9.442;2022-10-15T11:59:31;18.30;99.90
9828;DHT22;4953;48.952;9.442;2022-10-15T12:02:01;18.40;99.90
9828;DHT22;4953;48.952;9.442;2022-10-15T12:04:35;18.40;99.90
9828;DHT22;4953;48.952;9.442;2022-10-15T12:07:06;18.40;99.90
9828;DHT22;4953;48.952;9.442;2022-10-15T12:09:41;18.50;99.90
9828;DHT22;4953;48.952;9.442;2022-10-15T12:12:16;18.60;99.90
9828;DHT22;4953;48.952;9.442;2022-10-15T12:14:50;18.50;99.90
9828;DHT22;4953;48.952;9.442;2022-10-15T12:17:24;18.50;99.90
9828;DHT22;4953;48.952;9.442;2022-10-15T12:20:00;18.50;99.90
9828;DHT22;4953;48.952;9.442;2022-10-15T12:22:34;18.40;99.90
9828;DHT22;4953;48.952;9.442;2022-10-15T12:25:03;18.30;99.90
9828;DHT22;4953;48.952;9.442;2022-10-15T12:27:33;18.30;99.90
9828;DHT22;4953;48.952;9.442;2022-10-15T12:30:19;18.40;99.90
9828;DHT22;4953;48.952;9.442;2022-10-15T12:32:46;18.30;99.90
9828;DHT22;4953;48.952;9.442;2022-10-15T12:35:35;18.30;99.90
9828;DHT22;4953;48.952;9.442;2022-10-15T12:38:24;18.30;99.90
9828;DHT22;4953;48.952;9.442;2022-10-15T12:40:59;18.30;99.90
9828;DHT22;4953;48.952;9.442;2022-10-15T12:43:29;18.30;99.90
9828;DHT22;4953;48.952;9.442;2022-10-15T12:45:58;18.20;99.90
9828;DHT22;4953;48.952;9.442;2022-10-15T12:48:37;18.20;99.90
9828;DHT22;4953;48.952;9.442;2022-10-15T12:51:38;18.20;99.90
9828;DHT22;4953;48.952;9.442;2022-10-15T12:54:31;18.20;99.90
9828;DHT22;4953;48.952;9.442;2022-10-15T12:56:58;18.10;99.90
9828;DHT22;4953;48.952;9.442;2022-10-15T12:59:52;18.20;99.90
9828;DHT22;4953;48.952;9.442;2022-10-15T13:02:33;18.10;99.90
9828;DHT22;4953;48.952;9.442;2022-10-15T13:05:01;18.10;99.90
9828;DHT22;4953;48.952;9.442;2022-10-15T13:07:28;18.10;99.90
9828;DHT22;4953;48.952;9.442;2022-10-15T13:09:55;18.10;99.90
9828;DHT22;4953;48.952;9.442;2022-10-15T13:12:25;18.20;99.90
9828;DHT22;4953;48.952;9.442;2022-10-15T13:14:58;18.20;99.90
9828;DHT22;4953;48.952;9.442;2022-10-15T13:17:28;18.20;99.90
9828;DHT22;4953;48.952;9.442;2022-10-15T13:19:57;18.20;99.90
9828;DHT22;4953;48.952;9.442;2022-10-15T13:22:27;18.20;99.90
9828;DHT22;4953;48.952;9.442;2022-10-15T13:24:54;18.20;99.90
9828;DHT22;4953;48.952;9.442;2022-10-15T13:27:23;18.20;99.90
9828;DHT22;4953;48.952;9.442;2022-10-15T13:29:59;18.20;99.90
9828;DHT22;4953;48.952;9.442;2022-10-15T13:32:28;18.20;99.90
9828;DHT22;4953;48.952;9.442;2022-10-15T13:34:55;18.10;99.90
9828;DHT22;4953;48.952;9.442;2022-10-15T13:37:29;18.10;99.90
9828;DHT22;4953;48.952;9.442;2022-10-15T13:39:57;18.20;99.90
9828;DHT22;4953;48.952;9.442;2022-10-15T13:42:25;18.10;99.90
9828;DHT22;4953;48.952;9.442;2022-10-15T13:44:58;18.10;99.90
9828;DHT22;4953;48.952;9.442;2022-10-15T13:47:28;18.10;99.90
9828;DHT22;4953;48.952;9.442;2022-10-15T13:50:21;18.00;99.90
9828;DHT22;4953;48.952;9.442;2022-10-15T13:52:51;18.00;99.90
9828;DHT22;4953;48.952;9.442;2022-10-15T13:55:22;18.00;99.90
9828;DHT22;4953;48.952;9.442;2022-10-15T13:57:52;18.00;99.90
9828;DHT22;4953;48.952;9.442;2022-10-15T14:00:24;18.00;99.90
9828;DHT22;4953;48.952;9.442;2022-10-15T14:03:11;17.90;99.90
9828;DHT22;4953;48.952;9.442;2022-10-15T14:05:38;17.80;99.90
9828;DHT22;4953;48.952;9.442;2022-10-15T14:08:14;17.70;99.90
9828;DHT22;4953;48.952;9.442;2022-10-15T14:10:41;17.70;99.90
9828;DHT22;4953;48.952;9.442;2022-10-15T14:13:08;17.60;99.90
9828;DHT22;4953;48.952;9.442;2022-10-15T14:15:57;17.60;99.90
9828;DHT22;4953;48.952;9.442;2022-10-15T14:18:32;17.50;99.90
9828;DHT22;4953;48.952;9.442;2022-10-15T14:21:00;17.50;99.90
9828;DHT22;4953;48.952;9.442;2022-10-15T14:23:27;17.40;99.90
9828;DHT22;4953;48.952;9.442;2022-10-15T14:25:57;17.40;99.90
9828;DHT22;4953;48.952;9.442;2022-10-15T14:28:25;17.40;99.90
9828;DHT22;4953;48.952;9.442;2022-10-15T14:30:54;17.40;99.90
9828;DHT22;4953;48.952;9.442;2022-10-15T14:33:42;17.50;99.90
9828;DHT22;4953;48.952;9.442;2022-10-15T14:36:13;17.40;99.90
9828;DHT22;4953;48.952;9.442;2022-10-15T14:38:40;17.40;99.90
9828;DHT22;4953;48.952;9.442;2022-10-15T14:41:21;17.40;99.90
9828;DHT22;4953;48.952;9.442;2022-10-15T14:44:00;17.50;99.90
9828;DHT22;4953;48.952;9.442;2022-10-15T14:46:36;17.50;99.90
9828;DHT22;4953;48.952;9.442;2022-10-15T14:49:17;17.50;99.90
9828;DHT22;4953;48.952;9.442;2022-10-15T14:51:45;17.50;99.90
9828;DHT22;4953;48.952;9.442;2022-10-15T14:54:20;17.60;99.90
9828;DHT22;4953;48.952;9.442;2022-10-15T14:56:49;17.60;99.90
9828;DHT22;4953;48.952;9.442;2022-10-15T14:59:18;17.60;99.90
9828;DHT22;4953;48.952;9.442;2022-10-15T15:01:52;17.70;99.90
9828;DHT22;4953;48.952;9.442;2022-10-15T15:04:34;17.70;99.90
9828;DHT22;4953;48.952;9.442;2022-10-15T15:07:17;17.70;99.90
9828;DHT22;4953;48.952;9.442;2022-10-15T15:09:49;17.80;99.90
9828;DHT22;4953;48.952;9.442;2022-10-15T15:12:21;17.80;99.90
9828;DHT22;4953;48.952;9.442;2022-10-15T15:14:49;17.80;99.90
9828;DHT22;4953;48.952;9.442;2022-10-15T15:17:19;17.80;99.90
9828;DHT22;4953;48.952;9.442;2022-10-15T15:19:47;17.80;99.90
9828;DHT22;4953;48.952;9.442;2022-10-15T15:22:15;17.80;99.90
9828;DHT22;4953;48.952;9.442;2022-10-15T15:24:43;17.80;99.90
9828;DHT22;4953;48.952;9.442;2022-10-15T15:27:21;17.80;99.90
9828;DHT22;4953;48.952;9.442;2022-10-15T15:29:49;17.90;99.90
9828;DHT22;4953;48.952;9.442;2022-10-15T15:32:17;17.90;99.90
9828;DHT22;4953;48.952;9.442;2022-10-15T15:34:45;17.90;99.90
9828;DHT22;4953;48.952;9.442;2022-10-15T15:37:14;17.90;99.90
9828;DHT22;4953;48.952;9.442;2022-10-15T15:39:41;17.90;99.90
9828;DHT22;4953;48.952;9.442;2022-10-15T15:42:11;17.90;99.90
9828;DHT22;4953;48.952;9.442;2022-10-15T15:44:37;17.90;99.90
9828;DHT22;4953;48.952;9.442;2022-10-15T15:47:04;17.90;99.90
9828;DHT22;4953;48.952;9.442;2022-10-15T15:49:33;17.90;99.90
9828;DHT22;4953;48.952;9.442;2022-10-15T15:52:00;17.80;99.90
9828;DHT22;4953;48.952;9.442;2022-10-15T15:54:27;17.90;99.90
9828;DHT22;4953;48.952;9.442;2022-10-15T15:56:54;17.90;99.90
9828;DHT22;4953;48.952;9.442;2022-10-15T15:59:21;17.90;99.90
9828;DHT22;4953;48.952;9.442;2022-10-15T16:01:47;17.80;99.90
9828;DHT22;4953;48.952;9.442;2022-10-15T16:04:14;17.80;99.90
9828;DHT22;4953;48.952;9.442;2022-10-15T16:06:43;17.80;99.90
9828;DHT22;4953;48.952;9.442;2022-10-15T16:09:13;17.80;99.90
9828;DHT22;4953;48.952;9.442;2022-10-15T16:11:40;17.80;99.90
9828;DHT22;4953;48.952;9.442;2022-10-15T16:14:07;17.80;99.90
9828;DHT22;4953;48.952;9.442;2022-10-15T16:16:34;17.80;99.90
9828;DHT22;4953;48.952;9.442;2022-10-15T16:19:01;17.80;99.90
9828;DHT22;4953;48.952;9.442;2022-10-15T16:21:28;17.70;99.90
9828;DHT22;4953;48.952;9.442;2022-10-15T16:23:56;17.80;99.90
9828;DHT22;4953;48.952;9.442;2022-10-15T16:26:23;17.70;99.90
9828;DHT22;4953;48.952;9.442;2022-10-15T16:28:50;17.70;99.90
9828;DHT22;4953;48.952;9.442;2022-10-15T16:31:18;17.70;99.90
9828;DHT22;4953;48.952;9.442;2022-10-15T16:33:46;17.70;99.90
9828;DHT22;4953;48.952;9.442;2022-10-15T16:36:13;17.70;99.90
9828;DHT22;4953;48.952;9.442;2022-10-15T16:38:41;17.70;99.90
9828;DHT22;4953;48.952;9.442;2022-10-15T16:41:10;17.70;99.90
9828;DHT22;4953;48.952;9.442;2022-10-15T16:43:38;17.70;99.90
9828;DHT22;4953;48.952;9.442;2022-10-15T16:46:04;17.60;99.90
9828;DHT22;4953;48.952;9.442;2022-10-15T16:48:32;17.60;99.90
9828;DHT22;4953;48.952;9.442;2022-10-15T16:51:00;17.60;99.90
9828;DHT22;4953;48.952;9.442;2022-10-15T16:53:27;17.50;99.90
9828;DHT22;4953;48.952;9.442;2022-10-15T16:55:58;17.50;99.90
9828;DHT22;4953;48.952;9.442;2022-10-15T16:58:27;17.40;99.90
9828;DHT22;4953;48.952;9.442;2022-10-15T17:00:57;17.40;99.90
9828;DHT22;4953;48.952;9.442;2022-10-15T17:03:25;17.40;99.90
9828;DHT22;4953;48.952;9.442;2022-10-15T17:05:55;17.30;99.90
9828;DHT22;4953;48.952;9.442;2022-10-15T17:08:22;17.20;99.90
9828;DHT22;4953;48.952;9.442;2022-10-15T17:10:49;17.30;99.90
9828;DHT22;4953;48.952;9.442;2022-10-15T17:13:16;17.30;99.90
9828;DHT22;4953;48.952;9.442;2022-10-15T17:15:46;17.20;99.90
9828;DHT22;4953;48.952;9.442;2022-10-15T17:18:12;17.30;99.90
9828;DHT22;4953;48.952;9.442;2022-10-15T17:20:43;17.20;99.90
9828;DHT22;4953;48.952;9.442;2022-10-15T17:23:10;17.20;99.90
9828;DHT22;4953;48.952;9.442;2022-10-15T17:25:37;17.20;99.90
9828;DHT22;4953;48.952;9.442;2022-10-15T17:28:04;17.20;99.90
9828;DHT22;4953;48.952;9.442;2022-10-15T17:30:33;17.10;99.90
9828;DHT22;4953;48.952;9.442;2022-10-15T17:33:02;17.00;99.90
9828;DHT22;4953;48.952;9.442;2022-10-15T17:35:28;17.00;99.90
9828;DHT22;4953;48.952;9.442;2022-10-15T17:37:56;16.90;99.90
9828;DHT22;4953;48.952;9.442;2022-10-15T17:40:23;16.90;99.90
9828;DHT22;4953;48.952;9.442;2022-10-15T17:42:50;16.90;99.90
9828;DHT22;4953;48.952;9.442;2022-10-15T17:45:20;16.90;99.90
9828;DHT22;4953;48.952;9.442;2022-10-15T17:47:47;16.90;99.90
9828;DHT22;4953;48.952;9.442;2022-10-15T17:50:15;16.90;99.90
9828;DHT22;4953;48.952;9.442;2022-10-15T17:52:42;16.90;99.90
9828;DHT22;4953;48.952;9.442;2022-10-15T17:55:09;16.90;99.90
9828;DHT22;4953;48.952;9.442;2022-10-15T17:57:36;16.90;99.90
9828;DHT22;4953;48.952;9.442;2022-10-15T18:00:03;16.90;99.90
9828;DHT22;4953;48.952;9.442;2022-10-15T18:02:32;16.90;99.90
9828;DHT22;4953;48.952;9.442;2022-10-15T18:04:59;16.80;99.90
9828;DHT22;4953;48.952;9.442;2022-10-15T18:07:27;16.70;99.90
9828;DHT22;4953;48.952;9.442;2022-10-15T18:09:54;16.80;99.90
9828;DHT22;4953;48.952;9.442;2022-10-15T18:12:21;16.80;99.90
9828;DHT22;4953;48.952;9.442;2022-10-15T18:14:48;16.80;99.90
9828;DHT22;4953;48.952;9.442;2022-10-15T18:17:15;16.80;99.90
9828;DHT22;4953;48.952;9.442;2022-10-15T18:19:43;16.80;99.90
9828;DHT22;4953;48.952;9.442;2022-10-15T18:22:10;16.80;99.90
9828;DHT22;4953;48.952;9.442;2022-10-15T18:24:38;16.80;99.90
9828;DHT22;4953;48.952;9.442;2022-10-15T18:27:05;16.80;99.90
9828;DHT22;4953;48.952;9.442;2022-10-15T18:29:32;16.80;99.90
9828;DHT22;4953;48.952;9.442;2022-10-15T18:32:00;16.80;99.90
9828;DHT22;4953;48.952;9.442;2022-10-15T18:34:27;16.80;99.90
9828;DHT22;4953;48.952;9.442;2022-10-15T18:36:55;16.90;99.90
9828;DHT22;4953;48.952;9.442;2022-10-15T18:39:23;16.90;99.90
9828;DHT22;4953;48.952;9.442;2022-10-15T18:41:52;16.90;99.90
9828;DHT22;4953;48.952;9.442;2022-10-15T18:44:19;16.90;99.90
9828;DHT22;4953;48.952;9.442;2022-10-15T18:46:47;16.90;99.90
9828;DHT22;4953;48.952;9.442;2022-10-15T18:49:16;16.90;99.90
9828;DHT22;4953;48.952;9.442;2022-10-15T18:51:44;16.90;99.90
9828;DHT22;4953;48.952;9.442;2022-10-15T18:54:11;16.90;99.90
9828;DHT22;4953;48.952;9.442;2022-10-15T18:56:38;16.90;99.90
9828;DHT22;4953;48.952;9.442;2022-10-15T18:59:06;16.90;99.90
9828;DHT22;4953;48.952;9.442;2022-10-15T19:01:35;16.80;99.90
9828;DHT22;4953;48.952;9.442;2022-10-15T19:04:05;16.80;99.90
9828;DHT22;4953;48.952;9.442;2022-10-15T19:06:34;16.80;99.90
9828;DHT22;4953;48.952;9.442;2022-10-15T19:09:03;16.80;99.90
9828;DHT22;4953;48.952;9.442;2022-10-15T19:11:32;16.70;99.90
9828;DHT22;4953;48.952;9.442;2022-10-15T19:13:59;16.70;99.90
9828;DHT22;4953;48.952;9.442;2022-10-15T19:16:28;16.70;99.90
9828;DHT22;4953;48.952;9.442;2022-10-15T19:18:55;16.70;99.90
9828;DHT22;4953;48.952;9.442;2022-10-15T19:21:22;16.70;99.90
9828;DHT22;4953;48.952;9.442;2022-10-15T19:23:49;16.70;99.90
9828;DHT22;4953;48.952;9.442;2022-10-15T19:26:16;16.70;99.90
9828;DHT22;4953;48.952;9.442;2022-10-15T19:28:43;16.80;99.90
9828;DHT22;4953;48.952;9.442;2022-10-15T19:31:17;16.80;99.90
9828;DHT22;4953;48.952;9.442;2022-10-15T19:33:46;16.70;99.90
9828;DHT22;4953;48.952;9.442;2022-10-15T19:36:18;16.80;99.90
9828;DHT22;4953;48.952;9.442;2022-10-15T19:38:45;16.70;99.90
9828;DHT22;4953;48.952;9.442;2022-10-15T19:41:12;16.80;99.90
9828;DHT22;4953;48.952;9.442;2022-10-15T19:43:39;16.70;99.90
9828;DHT22;4953;48.952;9.442;2022-10-15T19:46:05;16.70;99.90
9828;DHT22;4953;48.952;9.442;2022-10-15T19:48:32;16.70;99.90
9828;DHT22;4953;48.952;9.442;2022-10-15T19:51:01;16.70;99.90
9828;DHT22;4953;48.952;9.442;2022-10-15T19:53:29;16.70;99.90
9828;DHT22;4953;48.952;9.442;2022-10-15T19:55:58;16.70;99.90
9828;DHT22;4953;48.952;9.442;2022-10-15T19:58:25;16.70;99.90
9828;DHT22;4953;48.952;9.442;2022-10-15T20:00:53;16.70;99.90
9828;DHT22;4953;48.952;9.442;2022-10-15T20:03:21;16.70;99.90
9828;DHT22;4953;48.952;9.442;2022-10-15T20:05:48;16.70;99.90
9828;DHT22;4953;48.952;9.442;2022-10-15T20:08:17;16.70;99.90
9828;DHT22;4953;48.952;9.442;2022-10-15T20:10:46;16.60;99.90
9828;DHT22;4953;48.952;9.442;2022-10-15T20:13:16;16.60;99.90
9828;DHT22;4953;48.952;9.442;2022-10-15T20:15:44;16.60;99.90
9828;DHT22;4953;48.952;9.442;2022-10-15T20:18:12;16.60;99.90
9828;DHT22;4953;48.952;9.442;2022-10-15T20:20:40;16.60;99.90